Time;durP1;ratioP1;P1;durP2;ratioP2;P2;SDS_P1;SDS_P2;PMS_P1;PMS_P2;Temp;Humidity;BMP_temperature;BMP_pressure;BME280_temperature;BME280_humidity;BME280_pressure;Samples;Min_cycle;Max_cycle;Signal;HPM_P1;HPM_P2
2021/04/12 00:02:03;;;;;;;18.62;8.95;;;;;;;8.56;61.90;100565.50;1742918;82;21762;-80
2021/04/12 00:05:37;;;;;;;20.43;9.43;;;;;;;8.56;61.58;100557.31;1681206;85;21340;-80
2021/04/12 00:08:53;;;;;;;20.65;9.28;;;;;;;8.58;61.53;100553.94;1742827;82;21193;-80
2021/04/12 00:12:12;;;;;;;15.48;8.83;;;;;;;8.60;61.46;100547.30;1741303;82;21161;-80
2021/04/12 00:15:38;;;;;;;17.92;8.13;;;;;;;8.62;61.34;100552.62;1724791;82;21213;-80
2021/04/12 00:18:52;;;;;;;16.15;8.83;;;;;;;8.63;61.10;100555.17;1742751;82;21811;-80
2021/04/12 00:22:13;;;;;;;18.40;9.33;;;;;;;8.63;61.12;100551.09;1742867;82;21283;-80
2021/04/12 00:25:51;;;;;;;17.85;9.65;;;;;;;8.65;61.08;100546.83;1741289;82;21212;-80
2021/04/12 00:29:23;;;;;;;20.43;9.38;;;;;;;8.64;61.14;100536.43;1741320;82;21193;-81
2021/04/12 00:32:40;;;;;;;17.45;9.58;;;;;;;8.64;60.99;100525.52;1720386;82;21753;-80
2021/04/12 00:36:16;;;;;;;19.77;9.88;;;;;;;8.65;60.71;100512.23;1742897;82;21296;-80
2021/04/12 00:39:50;;;;;;;17.25;9.25;;;;;;;8.66;60.43;100494.03;1742921;82;21323;-80
2021/04/12 00:43:12;;;;;;;18.92;9.48;;;;;;;8.66;60.11;100484.48;1742636;82;21327;-80
2021/04/12 00:46:54;;;;;;;22.55;10.45;;;;;;;8.69;59.89;100478.17;1742943;82;21880;-80
2021/04/12 00:50:31;;;;;;;16.77;10.23;;;;;;;8.71;59.74;100475.31;1743029;82;21284;-81
2021/04/12 00:54:15;;;;;;;22.25;10.90;;;;;;;8.73;59.59;100462.36;1714852;82;21287;-81
2021/04/12 00:57:36;;;;;;;16.90;9.00;;;;;;;8.76;59.65;100482.50;1742699;82;21292;-80
2021/04/12 01:00:51;;;;;;;20.20;9.80;;;;;;;8.78;59.61;100491.36;1742960;82;21279;-81
2021/04/12 01:04:39;;;;;;;15.25;8.30;;;;;;;8.81;59.66;100491.56;1742782;82;21271;-81
2021/04/12 01:08:12;;;;;;;18.07;9.53;;;;;;;8.82;59.69;100485.94;1742524;82;21358;-81
2021/04/12 01:11:39;;;;;;;19.90;9.68;;;;;;;8.83;59.62;100493.10;1742803;82;21276;-81
2021/04/12 01:15:13;;;;;;;19.65;9.45;;;;;;;8.84;59.48;100486.62;1742944;82;21291;-80
2021/04/12 01:19:04;;;;;;;14.35;8.43;;;;;;;8.86;59.30;100489.21;1741997;82;21319;-81
2021/04/12 01:22:57;;;;;;;18.27;9.28;;;;;;;8.86;59.04;100484.61;1742922;82;21869;-81
2021/04/12 01:26:43;;;;;;;19.77;8.85;;;;;;;8.87;58.88;100488.19;1742954;82;21276;-81
2021/04/12 01:30:42;;;;;;;19.55;10.05;;;;;;;8.86;58.85;100477.79;1742919;82;21730;-80
2021/04/12 01:34:27;;;;;;;18.05;8.83;;;;;;;8.89;58.66;100478.84;1652156;86;21387;-81
2021/04/12 01:37:36;;;;;;;18.85;8.58;;;;;;;8.90;58.75;100481.91;1709894;84;21335;-81
2021/04/12 01:41:17;;;;;;;19.23;9.63;;;;;;;8.90;58.74;100468.78;1710348;84;21853;-80
2021/04/12 01:45:08;;;;;;;18.87;9.08;;;;;;;8.89;58.79;100474.75;1744726;81;21292;-80
2021/04/12 01:48:46;;;;;;;19.55;9.53;;;;;;;8.91;58.66;100469.97;1724817;82;21780;-80
2021/04/12 01:52:23;;;;;;;20.17;10.38;;;;;;;8.90;58.41;100472.36;1744635;82;21340;-81
2021/04/12 01:55:57;;;;;;;25.52;10.00;;;;;;;8.92;58.36;100464.86;1744814;82;21268;-80
2021/04/12 01:59:35;;;;;;;21.05;9.93;;;;;;;8.91;58.32;100463.16;1744615;82;21893;-80
2021/04/12 02:03:21;;;;;;;17.48;8.95;;;;;;;8.92;58.56;100464.86;1744701;82;21212;-81
2021/04/12 02:06:52;;;;;;;16.32;7.47;;;;;;;8.93;58.24;100469.80;1744566;82;21185;-81
2021/04/12 02:10:20;;;;;;;12.15;7.15;;;;;;;8.96;58.03;100459.94;1744788;82;21169;-81
2021/04/12 02:13:50;;;;;;;14.50;7.28;;;;;;;8.96;58.25;100460.80;1744708;82;21308;-81
2021/04/12 02:17:21;;;;;;;14.05;8.00;;;;;;;8.99;58.18;100473.75;1744882;82;21275;-80
2021/04/12 02:20:52;;;;;;;16.70;8.33;;;;;;;8.98;57.84;100461.13;1744952;82;22249;-80
2021/04/12 02:24:33;;;;;;;16.57;7.65;;;;;;;9.00;58.56;100480.42;1744726;82;21331;-80
2021/04/12 02:28:14;;;;;;;12.78;6.92;;;;;;;9.03;58.66;100479.23;1729158;82;21307;-81
2021/04/12 02:32:00;;;;;;;14.38;8.85;;;;;;;9.06;58.09;100478.92;1715903;81;21280;-81
2021/04/12 02:35:30;;;;;;;17.90;7.70;;;;;;;9.07;59.64;100496.99;1744674;82;21347;-81
2021/04/12 02:39:02;;;;;;;15.10;8.35;;;;;;;9.02;63.57;100485.71;1744609;82;21870;-81
2021/04/12 02:42:46;;;;;;;13.13;8.28;;;;;;;8.97;64.37;100480.74;1751000;80;21302;-81
2021/04/12 02:46:08;;;;;;;17.73;8.28;;;;;;;8.94;65.54;100468.30;1788418;80;21811;-81
2021/04/12 02:50:01;;;;;;;13.88;7.72;;;;;;;8.95;65.33;100469.15;1788302;80;21186;-81
2021/04/12 02:53:28;;;;;;;24.70;8.30;;;;;;;8.99;65.08;100463.72;1788298;80;21727;-81
2021/04/12 02:57:02;;;;;;;16.80;7.85;;;;;;;9.04;64.49;100464.08;1788434;80;21161;-81
2021/04/12 03:00:46;;;;;;;15.35;7.92;;;;;;;9.08;64.15;100462.74;1788367;80;21162;-80
2021/04/12 03:04:16;;;;;;;20.62;7.78;;;;;;;9.12;63.92;100460.52;1788182;80;21312;-81
2021/04/12 03:07:45;;;;;;;22.48;7.70;;;;;;;9.17;63.52;100467.70;1788260;80;21185;-81
2021/04/12 03:11:12;;;;;;;13.25;6.40;;;;;;;9.18;63.28;100459.38;1788299;80;21731;-81
2021/04/12 03:14:47;;;;;;;18.32;7.33;;;;;;;9.21;62.64;100458.17;1788018;80;21167;-80
2021/04/12 03:18:16;;;;;;;17.77;9.18;;;;;;;9.18;62.35;100464.83;1788368;80;21838;-81
2021/04/12 03:21:47;;;;;;;18.80;8.50;;;;;;;9.16;61.60;100470.09;1764747;80;21850;-81
2021/04/12 03:25:27;;;;;;;21.00;8.20;;;;;;;9.18;61.53;100472.17;1790232;80;21707;-81
2021/04/12 04:51:49;;;;;;;26.17;12.07;;;;;;;9.17;75.71;100476.78;1686599;82;21280;-81
2021/04/12 04:55:24;;;;;;;20.35;13.22;;;;;;;9.15;76.44;100470.61;1685985;84;21209;-81
2021/04/12 04:58:57;;;;;;;25.12;11.90;;;;;;;9.19;76.85;100478.81;1643797;85;21878;-81
2021/04/12 05:02:31;;;;;;;26.57;12.07;;;;;;;9.25;77.15;100476.45;1661954;83;21212;-81
2021/04/12 05:06:15;;;;;;;23.52;12.07;;;;;;;9.28;77.55;100478.87;1711567;83;21878;-80
2021/04/12 05:09:31;;;;;;;25.15;12.70;;;;;;;9.30;78.15;100480.39;1682521;82;21277;-80
2021/04/12 05:13:01;;;;;;;20.40;10.45;;;;;;;9.24;79.26;100482.42;1697069;83;21309;-80
2021/04/12 05:16:29;;;;;;;22.32;9.30;;;;;;;9.22;79.60;100485.81;1703487;82;21376;-81
2021/04/12 05:20:02;;;;;;;18.00;9.35;;;;;;;9.18;80.51;100485.81;1705156;82;21280;-81
2021/04/12 05:23:46;;;;;;;17.52;9.45;;;;;;;9.17;81.12;100492.27;1706740;82;21158;-81
2021/04/12 05:27:57;;;;;;;13.50;8.68;;;;;;;9.21;81.62;100496.39;1706891;81;21206;-81
2021/04/12 05:31:46;;;;;;;12.93;8.60;;;;;;;9.19;82.31;100488.88;1712146;82;21813;-81
2021/04/12 05:35:05;;;;;;;14.98;7.47;;;;;;;9.12;83.47;100490.54;1718470;82;21284;-81
2021/04/12 05:38:31;;;;;;;10.30;7.75;;;;;;;9.05;84.36;100496.31;1754889;81;21893;-81
2021/04/12 05:41:50;;;;;;;15.20;8.10;;;;;;;9.00;85.73;100502.77;1764838;80;21830;-81
2021/04/12 05:45:16;;;;;;;14.05;7.95;;;;;;;8.93;86.78;100502.02;1762033;80;21341;-81
2021/04/12 05:48:57;;;;;;;10.48;6.97;;;;;;;8.89;87.34;100501.14;1756227;80;21403;-81
2021/04/12 05:52:41;;;;;;;13.25;7.58;;;;;;;8.94;87.90;100499.67;1760005;80;21763;-81
2021/04/12 05:56:33;;;;;;;17.12;7.87;;;;;;;8.98;88.05;100493.87;1758786;79;21258;-81
2021/04/12 06:00:25;;;;;;;14.25;8.15;;;;;;;9.01;88.34;100497.65;1755265;80;21287;-81
2021/04/12 06:03:45;;;;;;;;;;;;;;;9.07;88.65;100497.84;1755653;80;21310;-81
2021/04/12 06:07:29;;;;;;;11.97;7.92;;;;;;;9.09;89.08;100497.20;1757535;80;20227;-81
2021/04/12 06:11:03;;;;;;;14.18;7.55;;;;;;;9.08;89.27;100498.70;1756498;80;21762;-81
2021/04/12 06:14:45;;;;;;;14.38;10.20;;;;;;;9.07;89.41;100504.67;1738607;80;21403;-81
2021/04/12 06:18:08;;;;;;;;;;;;;;;9.09;89.87;100504.53;1749497;80;21325;-80
2021/04/12 06:21:34;;;;;;;20.40;8.68;;;;;;;9.11;90.26;100507.94;1755300;80;20216;-81
2021/04/12 06:25:09;;;;;;;13.83;9.15;;;;;;;9.11;90.51;100505.20;1759535;80;21309;-81
2021/04/12 06:28:44;;;;;;;12.60;8.38;;;;;;;9.14;90.59;100512.57;1755015;80;21213;-81
2021/04/12 06:32:27;;;;;;;15.35;8.80;;;;;;;9.14;90.61;100512.57;1756013;80;21312;-81
2021/04/12 06:36:08;;;;;;;11.75;8.93;;;;;;;9.10;90.80;100514.42;1681910;82;21813;-81
2021/04/12 06:39:54;;;;;;;14.18;9.83;;;;;;;9.07;91.26;100516.09;1753832;80;21732;-81
2021/04/12 06:43:29;;;;;;;14.20;9.50;;;;;;;9.05;91.57;100519.51;1753183;80;21186;-82
2021/04/12 06:46:54;;;;;;;15.88;10.00;;;;;;;9.06;91.95;100519.34;1755806;80;21925;-81
2021/04/12 06:50:35;;;;;;;14.53;9.20;;;;;;;9.11;92.26;100517.48;1689248;82;21236;-82
2021/04/12 06:53:57;;;;;;;15.18;9.08;;;;;;;9.20;92.43;100520.09;1704841;82;21298;-83
2021/04/12 06:57:35;;;;;;;14.15;9.53;;;;;;;9.30;92.31;100524.58;1723928;81;21764;-81
2021/04/12 07:01:20;;;;;;;25.15;11.97;;;;;;;9.38;91.99;100526.84;1736466;81;21307;-81
2021/04/12 07:04:58;;;;;;;18.67;9.63;;;;;;;9.48;91.32;100531.67;1722112;81;21619;-82
2021/04/12 07:08:30;;;;;;;18.10;11.08;;;;;;;9.51;90.27;100518.73;1734207;81;21872;-79
2021/04/12 07:12:22;;;;;;;14.03;9.98;;;;;;;9.55;89.58;100523.69;1743815;80;21786;-82
2021/04/12 07:15:59;;;;;;;17.10;10.95;;;;;;;9.60;89.18;100519.95;1670979;83;21372;-82
2021/04/12 07:19:31;;;;;;;21.73;11.57;;;;;;;9.66;88.77;100523.89;1688377;82;21303;-83
2021/04/12 07:23:08;;;;;;;23.45;12.75;;;;;;;9.75;88.61;100528.88;1685181;83;21601;-82
2021/04/12 07:26:48;;;;;;;16.97;11.95;;;;;;;9.75;88.16;100531.09;1690972;82;21580;-82
2021/04/12 07:30:34;;;;;;;21.75;13.38;;;;;;;9.73;88.12;100538.08;1695939;82;21185;-81
2021/04/12 07:34:07;;;;;;;21.25;13.70;;;;;;;9.66;88.07;100543.02;1691021;82;21277;-81
2021/04/12 07:38:08;;;;;;;30.55;14.47;;;;;;;9.59;87.87;100540.58;1687490;82;21367;-81
2021/04/12 07:41:41;;;;;;;34.13;16.40;;;;;;;9.51;88.33;100541.94;1689689;83;21744;-81
2021/04/12 07:45:16;;;;;;;38.05;16.85;;;;;;;9.46;88.81;100550.10;1689955;83;21255;-81
2021/04/12 07:48:36;;;;;;;24.63;15.35;;;;;;;9.42;89.24;100542.40;1657717;83;21624;-81
2021/04/12 07:52:32;;;;;;;30.27;17.77;;;;;;;9.38;89.78;100537.77;1734723;81;21318;-80
2021/04/12 07:56:07;;;;;;;31.20;17.52;;;;;;;9.40;90.17;100532.98;1727546;79;21307;-82
2021/04/12 08:00:09;;;;;;;28.80;17.40;;;;;;;9.49;90.26;100528.42;1722885;81;21330;-82
2021/04/12 08:03:37;;;;;;;28.90;15.98;;;;;;;9.57;90.11;100533.08;1721483;81;21283;-83
2021/04/12 08:07:29;;;;;;;34.78;16.90;;;;;;;9.67;89.92;100527.81;1687276;83;21259;-82
2021/04/12 08:11:09;;;;;;;26.55;13.75;;;;;;;9.80;89.56;100532.82;1688190;82;21304;-81
2021/04/12 08:15:10;;;;;;;24.77;13.28;;;;;;;9.89;88.59;100533.70;1665376;84;21241;-81
2021/04/12 08:18:32;;;;;;;28.65;13.18;;;;;;;9.97;87.10;100533.70;1691316;82;21284;-82
2021/04/12 08:22:08;;;;;;;22.45;13.65;;;;;;;9.99;85.88;100533.90;1689131;83;21272;-81
2021/04/12 08:25:35;;;;;;;25.72;13.32;;;;;;;10.06;85.27;100538.69;1665357;84;21296;-82
2021/04/12 08:29:26;;;;;;;19.40;11.95;;;;;;;10.09;84.43;100533.74;1671468;84;21197;-81
2021/04/12 08:33:28;;;;;;;26.12;14.90;;;;;;;10.28;84.11;100538.59;1672334;84;21847;-82
2021/04/12 08:37:09;;;;;;;29.98;15.72;;;;;;;10.52;83.52;100539.13;1671589;84;21794;-81
2021/04/12 08:40:31;;;;;;;32.35;15.53;;;;;;;10.72;82.54;100544.06;1683461;83;21216;-81
2021/04/12 08:43:54;;;;;;;18.77;12.47;;;;;;;10.84;81.17;100546.48;1698230;81;21279;-82
2021/04/12 08:47:25;;;;;;;24.70;13.60;;;;;;;10.95;80.35;100544.22;1730970;81;21173;-82
2021/04/12 08:50:51;;;;;;;26.00;14.35;;;;;;;11.03;78.17;100549.36;1715161;81;21315;-81
2021/04/12 08:54:21;;;;;;;39.92;18.87;;;;;;;11.05;77.13;100544.55;1730004;81;21829;-81
2021/04/12 08:57:57;;;;;;;32.08;17.27;;;;;;;11.11;75.92;100544.73;1724937;81;21575;-82
2021/04/12 09:01:34;;;;;;;41.70;21.45;;;;;;;11.14;75.47;100544.36;1663433;84;21318;-81
2021/04/12 09:05:09;;;;;;;63.68;33.63;;;;;;;11.17;75.35;100545.39;1726400;81;21146;-80
2021/04/12 09:08:56;;;;;;;79.55;39.78;;;;;;;11.14;75.71;100541.63;1719313;82;21337;-81
2021/04/12 09:12:29;;;;;;;72.22;37.17;;;;;;;11.06;75.70;100549.03;1704716;81;21761;-80
2021/04/12 09:15:55;;;;;;;80.90;38.53;;;;;;;11.04;75.74;100542.85;1725564;81;21327;-81
2021/04/12 09:19:31;;;;;;;72.40;35.78;;;;;;;10.96;75.32;100547.33;1723690;82;21343;-82
2021/04/12 09:23:07;;;;;;;56.48;30.27;;;;;;;10.94;75.76;100542.52;1724507;81;21224;-81
2021/04/12 09:26:36;;;;;;;74.90;35.17;;;;;;;10.98;75.75;100542.52;1727576;81;21276;-81
2021/04/12 09:29:48;;;;;;;71.27;33.43;;;;;;;11.04;75.55;100545.59;1728421;81;21256;-81
2021/04/12 09:33:13;;;;;;;59.33;30.60;;;;;;;11.12;75.56;100549.69;1724095;81;21857;-82
2021/04/12 09:36:23;;;;;;;85.45;42.23;;;;;;;11.16;75.47;100549.69;1724214;81;21293;-81
2021/04/12 09:40:14;;;;;;;84.83;42.30;;;;;;;11.16;75.19;100551.91;1727105;81;21291;-81
2021/04/12 09:43:42;;;;;;;59.83;33.02;;;;;;;11.13;75.24;100550.02;1720871;81;21783;-81
2021/04/12 09:47:20;;;;;;;65.40;31.45;;;;;;;11.09;75.37;100552.77;1713810;81;21799;-81
2021/04/12 09:51:00;;;;;;;57.45;27.32;;;;;;;11.08;75.40;100557.91;1725763;81;21359;-81
2021/04/12 09:54:28;;;;;;;41.85;23.55;;;;;;;10.96;75.35;100556.91;1688478;84;21308;-81
2021/04/12 09:58:08;;;;;;;51.95;28.92;;;;;;;10.94;75.73;100556.72;1709765;82;21706;-82
2021/04/12 10:01:30;;;;;;;55.00;29.95;;;;;;;10.89;75.75;100562.72;1711087;82;21297;-81
2021/04/12 10:05:12;;;;;;;56.02;29.15;;;;;;;10.88;76.10;100556.91;1712447;82;21318;-80
2021/04/12 10:08:54;;;;;;;53.05;28.70;;;;;;;10.92;75.88;100551.95;1705725;82;21704;-80
2021/04/12 10:12:05;;;;;;;64.05;34.65;;;;;;;10.93;75.81;100557.23;1688058;83;21184;-81
2021/04/12 10:15:47;;;;;;;53.45;27.52;;;;;;;10.93;75.92;100557.23;1700183;82;21322;-80
2021/04/12 10:19:16;;;;;;;46.18;27.00;;;;;;;10.94;75.81;100564.41;1695889;82;21832;-80
2021/04/12 10:22:22;;;;;;;51.40;25.85;;;;;;;10.87;75.90;100568.00;1695597;82;21335;-80
2021/04/12 10:25:36;;;;;;;46.13;27.13;;;;;;;10.82;76.03;100561.71;1696006;82;21294;-80
2021/04/12 10:28:57;;;;;;;51.42;26.35;;;;;;;10.76;76.05;100567.84;1692638;82;21869;-81
2021/04/12 10:32:26;;;;;;;38.50;22.42;;;;;;;10.70;76.34;100572.64;1689610;82;21883;-81
2021/04/12 10:35:54;;;;;;;37.70;21.07;;;;;;;10.65;76.43;100569.56;1692826;84;21306;-81
2021/04/12 10:39:14;;;;;;;34.90;21.30;;;;;;;10.58;76.39;100573.47;1695108;82;21202;-81
2021/04/12 10:42:30;;;;;;;32.45;19.48;;;;;;;10.48;76.50;100575.01;1691067;82;21211;-80
2021/04/12 10:45:54;;;;;;;35.60;19.92;;;;;;;10.43;76.91;100577.40;1689354;82;21288;-80
2021/04/12 10:49:15;;;;;;;34.00;20.20;;;;;;;10.42;77.11;100589.37;1691535;82;22238;-80
2021/04/12 10:53:04;;;;;;;33.15;18.77;;;;;;;10.38;76.96;100582.52;1687830;82;21316;-80
2021/04/12 10:56:36;;;;;;;46.37;20.72;;;;;;;10.31;77.01;100582.86;1689171;82;21875;-81
2021/04/12 11:00:09;;;;;;;28.45;17.10;;;;;;;10.26;77.43;100595.30;1689601;82;21291;-81
2021/04/12 11:03:51;;;;;;;31.68;16.50;;;;;;;10.21;77.61;100591.70;1682837;82;21317;-81
2021/04/12 11:07:15;;;;;;;27.32;15.20;;;;;;;10.17;78.01;100591.17;1689849;82;21203;-81
2021/04/12 11:10:43;;;;;;;27.27;14.43;;;;;;;10.17;78.03;100599.89;1688642;82;21875;-80
2021/04/12 11:13:57;;;;;;;29.55;14.58;;;;;;;10.19;78.34;100596.46;1689132;82;21198;-80
2021/04/12 11:17:07;;;;;;;26.65;16.00;;;;;;;10.24;78.30;100596.84;1712526;81;21323;-81
2021/04/12 11:20:31;;;;;;;36.80;19.00;;;;;;;10.29;78.10;100597.20;1717465;81;21379;-81
2021/04/12 11:23:49;;;;;;;75.37;34.95;;;;;;;10.33;77.94;100598.58;1703463;82;21369;-81
2021/04/12 11:27:27;;;;;;;48.15;27.70;;;;;;;10.34;77.74;100600.28;1687910;82;21294;-80
2021/04/12 11:30:52;;;;;;;41.58;21.77;;;;;;;10.35;77.70;100595.18;1692920;82;21894;-80
2021/04/12 11:34:17;;;;;;;36.53;18.75;;;;;;;10.35;77.76;100602.02;1675728;82;21746;-80
2021/04/12 11:37:28;;;;;;;38.25;19.07;;;;;;;10.35;78.03;100599.28;1701799;82;21305;-80
2021/04/12 11:40:37;;;;;;;36.08;20.52;;;;;;;10.35;78.00;100601.13;1706512;82;21855;-81
2021/04/12 11:43:46;;;;;;;19.90;12.18;;;;;;;10.35;78.07;100595.18;1702660;82;21314;-81
2021/04/12 11:47:28;;;;;;;22.07;12.58;;;;;;;10.38;78.25;100600.81;1702285;82;21297;-80
2021/04/12 11:50:48;;;;;;;21.97;14.53;;;;;;;10.38;78.45;100600.30;1706072;82;21262;-80
2021/04/12 11:54:06;;;;;;;23.85;14.98;;;;;;;10.40;78.69;100602.37;1688205;83;21195;-80
2021/04/12 11:57:39;;;;;;;24.27;13.28;;;;;;;10.43;78.63;100602.52;1690278;83;21293;-80
2021/04/12 12:00:56;;;;;;;24.35;14.58;;;;;;;10.46;78.47;100590.75;1663202;84;21206;-80
2021/04/12 12:04:17;;;;;;;36.15;17.12;;;;;;;10.53;78.57;100591.42;1686350;83;21184;-80
2021/04/12 12:07:39;;;;;;;45.55;21.07;;;;;;;10.56;78.40;100591.95;1649201;85;21795;-81
2021/04/12 12:10:55;;;;;;;28.87;16.17;;;;;;;10.55;77.79;100592.13;1663374;84;21545;-80
2021/04/12 12:14:13;;;;;;;25.52;12.37;;;;;;;10.51;77.78;100585.28;1666099;84;21337;-81
2021/04/12 12:17:37;;;;;;;21.50;10.60;;;;;;;10.51;77.70;100579.81;1669421;84;21219;-82
2021/04/12 12:20:50;;;;;;;27.00;12.35;;;;;;;10.51;77.69;100592.13;1649940;85;21318;-81
2021/04/12 12:24:23;;;;;;;26.10;12.55;;;;;;;10.51;77.49;100588.88;1670967;84;21211;-81
2021/04/12 12:27:47;;;;;;;28.75;12.18;;;;;;;10.48;77.37;100583.73;1675435;84;21189;-81
2021/04/12 12:30:58;;;;;;;24.12;12.43;;;;;;;10.44;77.48;100584.60;1677987;84;21749;-81
2021/04/12 12:34:32;;;;;;;21.37;13.60;;;;;;;10.46;77.83;100579.80;1685085;82;21296;-81
2021/04/12 12:37:52;;;;;;;47.38;22.55;;;;;;;10.52;77.59;100583.73;1660497;84;21807;-81
2021/04/12 12:41:01;;;;;;;30.92;18.42;;;;;;;10.53;77.50;100586.80;1669704;84;21317;-81
2021/04/12 12:44:07;;;;;;;27.30;14.50;;;;;;;10.55;77.46;100586.66;1679167;84;21313;-81
2021/04/12 12:47:00;;;;;;;24.85;13.20;;;;;;;10.59;77.37;100586.67;1677926;84;21697;-80
2021/04/12 12:49:57;;;;;;;26.97;12.18;;;;;;;10.64;77.40;100583.76;1651773;84;21290;-81
2021/04/12 12:53:13;;;;;;;20.40;11.70;;;;;;;10.70;77.12;100581.70;1666908;84;21175;-81
2021/04/12 12:56:31;;;;;;;24.45;11.15;;;;;;;10.75;76.72;100588.03;1669448;84;21290;-81
2021/04/12 12:59:46;;;;;;;26.65;11.15;;;;;;;10.80;76.30;100585.63;1685659;83;21296;-81
2021/04/12 13:02:52;;;;;;;22.98;10.93;;;;;;;10.80;76.22;100584.27;1673024;84;21877;-80
2021/04/12 13:05:58;;;;;;;27.07;11.95;;;;;;;10.83;76.07;100582.56;1679730;84;21264;-81
2021/04/12 13:09:20;;;;;;;23.90;10.80;;;;;;;10.86;75.83;100580.83;1680464;82;21323;-81
2021/04/12 13:12:26;;;;;;;24.82;12.65;;;;;;;10.94;75.93;100589.05;1750619;80;21190;-81
2021/04/12 13:15:43;;;;;;;35.85;11.65;;;;;;;11.04;75.70;100583.39;1760979;79;21151;-81
2021/04/12 13:18:51;;;;;;;27.67;12.98;;;;;;;11.19;75.38;100595.86;1760309;80;21875;-80
2021/04/12 13:22:06;;;;;;;27.22;15.28;;;;;;;11.32;74.81;100591.23;1761947;80;21257;-81
2021/04/12 13:25:34;;;;;;;30.48;12.93;;;;;;;11.40;74.21;100593.44;1739953;81;21366;-80
2021/04/12 13:28:46;;;;;;;29.67;11.80;;;;;;;11.44;73.17;100596.17;1695628;83;21198;-80
2021/04/12 13:32:04;;;;;;;29.72;12.05;;;;;;;11.49;72.79;100591.02;1712344;83;21696;-80
2021/04/12 13:35:24;;;;;;;31.62;15.78;;;;;;;11.56;72.60;100597.16;1720508;82;21161;-80
2021/04/12 13:38:34;;;;;;;29.90;12.15;;;;;;;11.55;72.60;100605.05;1716779;82;21162;-80
2021/04/12 13:41:47;;;;;;;24.55;12.15;;;;;;;11.60;72.81;100606.73;1717783;82;21295;-80
2021/04/12 13:45:00;;;;;;;25.48;12.33;;;;;;;11.64;72.44;100599.87;1710308;82;21276;-80
2021/04/12 13:48:28;;;;;;;19.62;11.45;;;;;;;11.66;72.17;100597.80;1696798;83;21332;-80
2021/04/12 13:51:52;;;;;;;26.65;12.07;;;;;;;11.64;71.99;100592.52;1708882;82;21169;-80
2021/04/12 13:55:06;;;;;;;23.05;11.35;;;;;;;11.59;71.97;100603.66;1707724;82;21178;-80
2021/04/12 13:58:20;;;;;;;20.68;10.98;;;;;;;11.58;72.29;100599.22;1715936;83;21562;-80
2021/04/12 14:01:33;;;;;;;20.02;10.00;;;;;;;11.57;72.50;100602.45;1708875;82;21371;-81
2021/04/12 14:04:53;;;;;;;20.80;9.55;;;;;;;11.55;72.34;100605.05;1728958;83;21315;-81
2021/04/12 14:08:22;;;;;;;18.23;9.50;;;;;;;11.49;72.15;100609.34;1700300;84;21728;-81
2021/04/12 14:11:49;;;;;;;26.25;10.10;;;;;;;11.43;72.27;100608.16;1700409;84;21301;-81
2021/04/12 14:15:19;;;;;;;19.57;8.53;;;;;;;11.39;72.79;100616.91;1700472;84;21320;-81
2021/04/12 14:18:53;;;;;;;18.35;7.92;;;;;;;11.30;72.58;100620.16;1701661;82;21328;-80
2021/04/12 14:22:09;;;;;;;19.20;8.78;;;;;;;11.19;73.14;100622.72;1702204;84;21284;-81
2021/04/12 14:25:34;;;;;;;17.55;6.95;;;;;;;11.08;73.42;100627.19;1702243;84;21296;-81
2021/04/12 14:28:45;;;;;;;12.50;6.60;;;;;;;11.02;73.20;100627.89;1702199;84;21323;-80
2021/04/12 14:31:50;;;;;;;19.07;7.00;;;;;;;10.95;73.38;100629.07;1698254;82;21281;-80
2021/04/12 14:34:59;;;;;;;11.15;6.70;;;;;;;10.92;73.35;100628.06;1688094;85;21183;-81
2021/04/12 14:38:26;;;;;;;15.10;6.95;;;;;;;10.89;73.39;100633.02;1688337;85;21344;-80
2021/04/12 14:41:33;;;;;;;14.28;6.15;;;;;;;10.87;73.49;100630.46;1688278;85;21343;-80
2021/04/12 14:44:50;;;;;;;10.72;6.70;;;;;;;10.84;73.66;100637.63;1688242;85;21301;-80
2021/04/12 14:48:01;;;;;;;13.30;6.05;;;;;;;10.81;73.97;100642.58;1698357;84;21356;-80
2021/04/12 14:51:13;;;;;;;10.45;6.10;;;;;;;10.72;73.80;100644.45;1701572;84;21682;-80
2021/04/12 14:54:22;;;;;;;13.55;6.67;;;;;;;10.67;74.03;100644.09;1702292;84;21288;-81
2021/04/12 14:57:30;;;;;;;12.73;6.12;;;;;;;10.62;74.05;100646.48;1702290;84;21327;-80
2021/04/12 15:00:45;;;;;;;11.40;6.03;;;;;;;10.56;74.46;100645.29;1702147;84;21878;-80
2021/04/12 15:04:14;;;;;;;12.03;6.20;;;;;;;10.51;74.76;100640.84;1702083;84;21362;-80
2021/04/12 15:07:22;;;;;;;10.35;5.95;;;;;;;10.47;74.88;100640.31;1702221;84;21245;-80
2021/04/12 15:10:43;;;;;;;11.97;6.60;;;;;;;10.46;75.11;100650.06;1702188;84;21292;-80
2021/04/12 15:13:53;;;;;;;9.95;5.53;;;;;;;10.45;75.35;100645.62;1702297;84;21869;-80
2021/04/12 15:17:20;;;;;;;12.25;5.78;;;;;;;10.43;75.31;100644.40;1700530;84;21202;-80
2021/04/12 15:20:33;;;;;;;12.50;5.70;;;;;;;10.43;75.29;100647.13;1688183;84;21870;-80
2021/04/12 15:23:40;;;;;;;11.18;5.87;;;;;;;10.42;75.30;100654.14;1701807;84;21324;-80
2021/04/12 15:26:59;;;;;;;13.83;6.25;;;;;;;10.38;75.42;100657.72;1700251;84;21182;-80
2021/04/12 15:30:07;;;;;;;11.30;6.10;;;;;;;10.31;75.65;100662.16;1701872;84;21690;-80
2021/04/12 15:33:22;;;;;;;13.03;5.80;;;;;;;10.23;75.76;100662.09;1701855;84;21221;-80
2021/04/12 15:36:47;;;;;;;16.15;5.83;;;;;;;10.18;76.07;100664.46;1701358;84;21818;-81
2021/04/12 15:39:53;;;;;;;12.15;6.08;;;;;;;10.14;76.38;100674.86;1702237;84;21281;-80
2021/04/12 15:43:08;;;;;;;11.68;5.70;;;;;;;10.10;76.52;100664.42;1685230;84;21858;-80
2021/04/12 15:46:22;;;;;;;11.55;5.05;;;;;;;10.06;76.69;100667.13;1685344;84;21304;-80
2021/04/12 15:49:44;;;;;;;16.20;6.35;;;;;;;10.01;76.89;100670.87;1702083;84;21276;-80
2021/04/12 15:52:56;;;;;;;14.60;6.83;;;;;;;9.97;77.08;100673.95;1695766;84;21320;-80
2021/04/12 15:56:33;;;;;;;22.82;9.23;;;;;;;9.93;77.38;100671.20;1700594;84;21217;-80
2021/04/12 16:00:06;;;;;;;16.23;7.83;;;;;;;9.91;77.68;100670.48;1694632;83;21301;-80
2021/04/12 16:03:16;;;;;;;12.73;7.05;;;;;;;9.88;77.85;100669.95;1681993;82;21296;-80
2021/04/12 16:06:20;;;;;;;13.72;6.75;;;;;;;9.85;78.09;100682.59;1717864;82;21849;-80
2021/04/12 16:09:34;;;;;;;11.80;6.58;;;;;;;9.82;78.28;100681.54;1718499;83;21299;-80
2021/04/12 16:12:40;;;;;;;14.87;7.03;;;;;;;9.79;78.53;100686.83;1718438;83;21308;-80
2021/04/12 16:16:04;;;;;;;15.95;7.75;;;;;;;9.78;78.93;100688.34;1716952;83;21219;-80
2021/04/12 16:19:19;;;;;;;11.80;6.42;;;;;;;9.75;79.25;100690.05;1718451;83;21283;-80
2021/04/12 16:22:41;;;;;;;13.98;7.40;;;;;;;9.72;79.54;100688.48;1718182;83;21811;-80
2021/04/12 16:26:01;;;;;;;14.87;6.50;;;;;;;9.71;79.66;100689.51;1718440;83;21263;-80
2021/04/12 16:29:09;;;;;;;;;;;;;;;9.70;79.80;100689.17;1721019;83;21275;-80
2021/04/12 16:32:30;;;;;;;8.85;5.87;;;;;;;9.71;79.89;100686.78;1718230;83;20285;-80
2021/04/12 16:35:45;;;;;;;15.03;6.53;;;;;;;9.69;80.02;100686.06;1717935;83;21818;-80
2021/04/12 16:38:53;;;;;;;13.98;8.30;;;;;;;9.67;80.12;100695.80;1717530;83;21889;-80
2021/04/12 16:42:11;;;;;;;13.62;6.95;;;;;;;9.63;80.24;100701.23;1718003;83;21311;-80
2021/04/12 16:45:33;;;;;;;11.68;6.47;;;;;;;9.61;80.33;100695.09;1718118;83;21276;-80
2021/04/12 16:48:47;;;;;;;16.67;7.05;;;;;;;9.63;80.46;100699.01;1718112;83;21350;-80
2021/04/12 16:52:00;;;;;;;19.77;8.05;;;;;;;9.60;80.45;100702.94;1717845;83;21862;-80
2021/04/12 16:55:36;;;;;;;18.37;7.90;;;;;;;9.62;80.46;100708.23;1676470;84;21289;-80
2021/04/12 16:58:45;;;;;;;38.23;11.43;;;;;;;9.65;80.43;100709.28;1641462;87;21320;-80
2021/04/12 17:01:59;;;;;;;25.95;11.05;;;;;;;9.64;80.47;100704.81;1671398;86;21306;-80
2021/04/12 17:05:21;;;;;;;20.50;8.58;;;;;;;9.63;80.52;100710.79;1638730;86;21298;-80
2021/04/12 17:08:31;;;;;;;16.82;7.95;;;;;;;9.63;80.58;100718.13;1671269;85;21823;-80
2021/04/12 17:12:07;;;;;;;17.32;7.78;;;;;;;9.63;80.61;100721.72;1668449;85;21217;-81
2021/04/12 17:15:18;;;;;;;26.30;11.28;;;;;;;9.62;80.66;100728.71;1671970;85;21234;-80
2021/04/12 17:18:36;;;;;;;18.60;9.30;;;;;;;9.62;80.74;100730.08;1672355;85;21300;-80